createdAt,value
2019-02-17T00:00:13.103Z,0.00
2019-02-17T00:01:13.092Z,0.00
2019-02-17T00:02:13.081Z,0.00
2019-02-17T00:03:13.070Z,0.00
2019-02-17T00:04:13.061Z,0.00
2019-02-17T00:05:13.050Z,0.00
2019-02-17T00:06:13.039Z,0.00
2019-02-17T00:07:13.029Z,0.00
2019-02-17T00:08:13.083Z,0.00
2019-02-17T00:09:13.009Z,0.00
2019-02-17T00:10:12.999Z,0.00
2019-02-17T00:11:12.987Z,0.00
2019-02-17T00:12:12.976Z,0.00
2019-02-17T00:13:12.967Z,0.00
2019-02-17T00:14:12.960Z,0.00
2019-02-17T00:15:12.951Z,0.00
2019-02-17T00:16:12.934Z,0.00
2019-02-17T00:17:12.939Z,0.00
2019-02-17T00:18:12.912Z,0.00
2019-02-17T00:19:12.905Z,0.00
2019-02-17T00:20:12.894Z,0.00
2019-02-17T00:21:12.883Z,0.00
2019-02-17T00:22:12.872Z,0.00
2019-02-17T00:23:12.860Z,0.00
2019-02-17T00:24:12.852Z,0.00
2019-02-17T00:25:12.841Z,0.00
2019-02-17T00:26:12.831Z,0.00
2019-02-17T00:27:12.819Z,0.00
2019-02-17T00:28:12.808Z,0.00
2019-02-17T00:29:12.801Z,0.00
2019-02-17T00:30:12.790Z,0.00
2019-02-17T00:31:12.779Z,0.00
2019-02-17T00:32:12.767Z,0.00
2019-02-17T00:33:12.759Z,0.00
2019-02-17T00:34:13.776Z,0.00
2019-02-17T00:35:12.737Z,0.00
2019-02-17T00:36:12.725Z,0.00
2019-02-17T00:37:12.720Z,0.00
2019-02-17T00:38:12.707Z,0.00
2019-02-17T00:39:12.695Z,0.00
2019-02-17T00:40:12.684Z,0.00
2019-02-17T00:41:12.676Z,0.00
2019-02-17T00:42:12.663Z,0.00
2019-02-17T00:43:12.652Z,0.00
2019-02-17T00:44:12.641Z,0.00
2019-02-17T00:45:12.632Z,0.00
2019-02-17T00:46:12.620Z,0.00
2019-02-17T00:47:12.609Z,0.00
2019-02-17T00:48:12.600Z,0.00
2019-02-17T00:49:12.590Z,0.00
2019-02-17T00:50:12.581Z,0.00
2019-02-17T00:51:12.572Z,0.00
2019-02-17T00:52:12.560Z,0.00
2019-02-17T00:53:12.549Z,0.00
2019-02-17T00:54:12.540Z,0.00
2019-02-17T00:55:12.527Z,0.00
2019-02-17T00:56:12.516Z,0.00
2019-02-17T00:57:12.508Z,0.00
2019-02-17T00:58:12.495Z,0.00
2019-02-17T00:59:20.121Z,0.00
2019-02-17T01:00:12.475Z,0.00
2019-02-17T01:01:12.468Z,0.00
2019-02-17T01:02:19.597Z,0.00
2019-02-17T01:03:54.005Z,0.00
2019-02-17T01:04:53.986Z,0.00
2019-02-17T01:06:35.531Z,0.00
2019-02-17T01:07:35.515Z,0.00
2019-02-17T01:09:17.561Z,0.00
2019-02-17T01:10:17.537Z,0.00
2019-02-17T01:11:17.530Z,0.00
2019-02-17T01:12:17.518Z,0.00
2019-02-17T01:13:17.507Z,0.00
2019-02-17T01:14:17.498Z,0.00
2019-02-17T01:15:17.487Z,0.00
2019-02-17T01:16:17.474Z,0.00
2019-02-17T01:17:17.467Z,0.00
2019-02-17T01:18:17.454Z,0.00
2019-02-17T01:19:17.446Z,0.00
2019-02-17T01:20:17.435Z,0.00
2019-02-17T01:21:17.425Z,0.00
2019-02-17T01:22:17.411Z,0.00
2019-02-17T01:23:17.401Z,0.00
2019-02-17T01:24:17.391Z,0.00
2019-02-17T01:25:17.382Z,0.00
2019-02-17T01:26:17.374Z,0.00
2019-02-17T01:27:17.363Z,0.00
2019-02-17T01:28:17.351Z,0.00
2019-02-17T01:29:20.446Z,0.00
2019-02-17T01:30:17.329Z,0.00
2019-02-17T01:31:17.324Z,0.00
2019-02-17T01:32:17.308Z,0.00
2019-02-17T01:33:17.297Z,0.00
2019-02-17T01:34:17.286Z,0.00
2019-02-17T01:35:17.276Z,0.00
2019-02-17T01:36:17.266Z,0.00
2019-02-17T01:37:17.256Z,0.00
2019-02-17T01:38:17.246Z,0.00
2019-02-17T01:39:17.234Z,0.00
2019-02-17T01:40:17.222Z,0.00
2019-02-17T01:41:17.213Z,0.00
2019-02-17T01:42:17.202Z,0.00
2019-02-17T01:43:17.193Z,0.00
2019-02-17T01:44:17.182Z,0.00
2019-02-17T01:45:17.173Z,0.00
2019-02-17T01:46:17.163Z,0.00
2019-02-17T01:47:17.151Z,0.00
2019-02-17T01:48:17.139Z,0.00
2019-02-17T01:49:17.130Z,0.00
2019-02-17T01:50:17.121Z,0.00
2019-02-17T01:51:17.109Z,0.00
2019-02-17T01:52:17.100Z,0.00
2019-02-17T01:53:17.087Z,0.00
2019-02-17T01:54:17.076Z,0.00
2019-02-17T01:55:17.070Z,0.00
2019-02-17T01:56:17.056Z,0.00
2019-02-17T01:57:17.046Z,0.00
2019-02-17T01:58:17.035Z,0.00
2019-02-17T01:59:17.026Z,0.00
2019-02-17T02:00:17.014Z,0.00
2019-02-17T02:01:17.283Z,0.00
2019-02-17T02:02:16.993Z,0.00
2019-02-17T02:03:16.983Z,0.00
2019-02-17T02:04:16.973Z,0.00
2019-02-17T02:05:16.961Z,0.00
2019-02-17T02:06:16.951Z,0.00
2019-02-17T02:07:16.939Z,0.00
2019-02-17T02:08:16.929Z,0.00
2019-02-17T02:09:16.919Z,0.00
2019-02-17T02:10:16.909Z,0.00
2019-02-17T02:11:16.900Z,0.00
2019-02-17T02:12:16.887Z,0.00
2019-02-17T02:13:16.879Z,0.00
2019-02-17T02:14:16.867Z,0.00
2019-02-17T02:15:16.857Z,0.00
2019-02-17T02:16:16.848Z,0.00
2019-02-17T02:17:16.836Z,0.00
2019-02-17T02:18:16.825Z,0.00
2019-02-17T02:19:16.815Z,0.00
2019-02-17T02:20:16.830Z,0.00
2019-02-17T02:21:16.793Z,0.00
2019-02-17T02:22:16.782Z,0.00
2019-02-17T02:23:16.772Z,0.00
2019-02-17T02:24:16.761Z,0.00
2019-02-17T02:25:16.753Z,0.00
2019-02-17T02:26:16.743Z,0.00
2019-02-17T02:27:16.732Z,0.00
2019-02-17T02:28:16.725Z,0.00
2019-02-17T02:29:16.720Z,0.00
2019-02-17T02:30:16.706Z,0.00
2019-02-17T02:31:16.689Z,0.00
2019-02-17T02:32:16.681Z,0.00
2019-02-17T02:33:16.668Z,0.00
2019-02-17T02:34:16.656Z,0.00
2019-02-17T02:35:16.647Z,0.00
2019-02-17T02:36:16.635Z,0.00
2019-02-17T02:37:16.627Z,0.00
2019-02-17T02:38:16.618Z,0.00
2019-02-17T02:39:16.606Z,0.00
2019-02-17T02:40:16.593Z,0.00
2019-02-17T02:41:16.584Z,0.00
2019-02-17T02:42:16.573Z,0.00
2019-02-17T02:43:16.563Z,0.00
2019-02-17T02:44:16.551Z,0.00
2019-02-17T02:45:16.541Z,0.00
2019-02-17T02:46:16.529Z,0.00
2019-02-17T02:47:16.524Z,0.00
2019-02-17T02:48:16.510Z,0.00
2019-02-17T02:49:16.500Z,0.00
2019-02-17T02:50:16.489Z,0.00
2019-02-17T02:51:16.479Z,0.00
2019-02-17T02:52:16.470Z,0.00
2019-02-17T02:53:16.459Z,0.00
2019-02-17T02:54:16.449Z,0.00
2019-02-17T02:55:16.437Z,0.00
2019-02-17T02:56:16.429Z,0.00
2019-02-17T02:57:16.420Z,0.00
2019-02-17T02:58:16.406Z,0.00
2019-02-17T02:59:16.396Z,0.00
2019-02-17T03:00:16.384Z,0.00
2019-02-17T03:01:16.373Z,0.00
2019-02-17T03:02:16.366Z,0.00
2019-02-17T03:03:16.357Z,0.00
2019-02-17T03:04:16.345Z,0.00
2019-02-17T03:05:16.334Z,0.00
2019-02-17T03:06:16.321Z,0.00
2019-02-17T03:07:16.313Z,0.00
2019-02-17T03:08:16.300Z,0.00
2019-02-17T03:09:16.293Z,0.00
2019-02-17T03:10:16.282Z,0.00
2019-02-17T03:11:16.268Z,0.00
2019-02-17T03:12:16.259Z,0.00
2019-02-17T03:13:16.250Z,0.00
2019-02-17T03:14:16.239Z,0.00
2019-02-17T03:15:16.229Z,0.00
2019-02-17T03:16:16.215Z,0.00
2019-02-17T03:17:16.213Z,0.00
2019-02-17T03:18:16.199Z,0.00
2019-02-17T03:19:16.188Z,0.00
2019-02-17T03:20:16.175Z,0.00
2019-02-17T03:21:16.163Z,0.00
2019-02-17T03:22:16.154Z,0.00
2019-02-17T03:23:16.144Z,0.00
2019-02-17T03:24:16.141Z,0.00
2019-02-17T03:25:16.121Z,0.00
2019-02-17T03:26:16.113Z,0.00
2019-02-17T03:27:16.103Z,0.00
2019-02-17T03:28:16.090Z,0.00
2019-02-17T03:29:16.083Z,0.00
2019-02-17T03:30:16.074Z,0.00
2019-02-17T03:31:16.064Z,0.00
2019-02-17T03:32:16.049Z,0.00
2019-02-17T03:33:16.042Z,0.00
2019-02-17T03:34:16.029Z,0.00
2019-02-17T03:35:16.022Z,0.00
2019-02-17T03:36:16.031Z,0.00
2019-02-17T03:37:15.997Z,0.00
2019-02-17T03:38:15.990Z,0.00
2019-02-17T03:39:15.987Z,0.00
2019-02-17T03:40:15.966Z,0.00
2019-02-17T03:41:15.955Z,0.00
2019-02-17T03:42:15.944Z,0.00
2019-02-17T03:43:15.937Z,0.00
2019-02-17T03:44:15.925Z,0.00
2019-02-17T03:45:15.913Z,0.00
2019-02-17T03:46:15.902Z,0.00
2019-02-17T03:47:15.893Z,0.00
2019-02-17T03:48:15.880Z,0.00
2019-02-17T03:49:15.872Z,0.00
2019-02-17T03:50:15.861Z,0.00
2019-02-17T03:51:15.850Z,0.00
2019-02-17T03:52:15.839Z,0.00
2019-02-17T03:53:15.829Z,0.00
2019-02-17T03:54:15.822Z,0.00
2019-02-17T03:55:15.814Z,0.00
2019-02-17T03:56:15.798Z,0.00
2019-02-17T03:57:15.790Z,0.00
2019-02-17T03:58:15.779Z,0.00
2019-02-17T03:59:15.767Z,0.00
2019-02-17T04:00:17.192Z,0.00
2019-02-17T04:01:15.753Z,0.00
2019-02-17T04:02:15.737Z,0.00
2019-02-17T04:03:15.725Z,0.00
2019-02-17T04:04:15.713Z,0.00
2019-02-17T04:05:15.710Z,0.00
2019-02-17T04:06:15.693Z,0.00
2019-02-17T04:07:15.683Z,0.00
2019-02-17T04:08:15.673Z,0.00
2019-02-17T04:09:15.662Z,0.00
2019-02-17T04:10:15.652Z,0.00
2019-02-17T04:11:15.642Z,0.00
2019-02-17T04:12:15.631Z,0.00
2019-02-17T04:13:15.619Z,0.00
2019-02-17T04:14:15.611Z,0.00
2019-02-17T04:15:15.599Z,0.00
2019-02-17T04:16:15.588Z,0.00
2019-02-17T04:17:15.579Z,0.00
2019-02-17T04:18:15.568Z,0.00
2019-02-17T04:19:15.558Z,0.00
2019-02-17T04:20:15.547Z,0.00
2019-02-17T04:21:15.538Z,0.00
2019-02-17T04:22:15.528Z,0.00
2019-02-17T04:23:15.517Z,0.00
2019-02-17T04:24:15.506Z,0.00
2019-02-17T04:25:15.500Z,0.00
2019-02-17T04:26:15.488Z,0.00
2019-02-17T04:27:15.867Z,0.00
2019-02-17T04:28:15.489Z,0.00
2019-02-17T04:29:15.453Z,0.00
2019-02-17T04:30:15.443Z,0.00
2019-02-17T04:31:15.435Z,0.00
2019-02-17T04:32:15.423Z,0.00
2019-02-17T04:33:15.418Z,0.00
2019-02-17T04:34:15.401Z,0.00
2019-02-17T04:35:15.394Z,0.00
2019-02-17T04:36:15.381Z,0.00
2019-02-17T04:37:15.371Z,0.00
2019-02-17T04:38:15.360Z,0.00
2019-02-17T04:39:15.352Z,0.00
2019-02-17T04:40:15.341Z,0.00
2019-02-17T04:41:15.328Z,0.00
2019-02-17T04:42:15.317Z,0.00
2019-02-17T04:43:15.308Z,0.00
2019-02-17T04:44:15.296Z,0.00
2019-02-17T04:45:15.287Z,0.00
2019-02-17T04:46:15.276Z,0.00
2019-02-17T04:47:15.284Z,0.00
2019-02-17T04:48:15.320Z,0.00
2019-02-17T04:49:15.243Z,0.00
2019-02-17T04:50:15.238Z,0.00
2019-02-17T04:51:15.224Z,0.00
2019-02-17T04:52:15.223Z,0.00
2019-02-17T04:53:15.203Z,0.00
2019-02-17T04:54:15.201Z,0.00
2019-02-17T04:55:15.181Z,0.00
2019-02-17T04:56:15.172Z,0.00
2019-02-17T04:57:15.161Z,0.00
2019-02-17T04:58:15.149Z,0.00
2019-02-17T04:59:15.139Z,0.00
2019-02-17T05:00:15.146Z,0.00
2019-02-17T05:01:15.121Z,0.00
2019-02-17T05:02:15.108Z,0.00
2019-02-17T05:03:15.098Z,0.00
2019-02-17T05:04:15.087Z,0.00
2019-02-17T05:05:15.078Z,0.00
2019-02-17T05:06:15.072Z,0.00
2019-02-17T05:07:15.058Z,0.00
2019-02-17T05:08:15.051Z,0.00
2019-02-17T05:09:15.037Z,0.00
2019-02-17T05:10:15.029Z,0.00
2019-02-17T05:11:15.020Z,0.00
2019-02-17T05:12:15.007Z,0.00
2019-02-17T05:13:14.994Z,0.00
2019-02-17T05:14:14.983Z,0.00
2019-02-17T05:15:14.977Z,0.00
2019-02-17T05:16:14.962Z,0.00
2019-02-17T05:17:14.953Z,0.00
2019-02-17T05:18:14.942Z,0.00
2019-02-17T05:19:14.993Z,0.00
2019-02-17T05:20:14.922Z,0.00
2019-02-17T05:21:14.910Z,0.00
2019-02-17T05:22:14.900Z,0.00
2019-02-17T05:23:14.891Z,0.00
2019-02-17T05:24:14.880Z,0.00
2019-02-17T05:25:14.930Z,0.00
2019-02-17T05:26:14.860Z,0.00
2019-02-17T05:27:14.852Z,0.00
2019-02-17T05:28:14.839Z,0.00
2019-02-17T05:29:14.829Z,0.00
2019-02-17T05:30:14.818Z,0.00
2019-02-17T05:31:14.807Z,0.00
2019-02-17T05:32:14.796Z,0.00
2019-02-17T05:33:14.789Z,0.00
2019-02-17T05:34:14.775Z,0.00
2019-02-17T05:35:14.764Z,0.00
2019-02-17T05:36:14.763Z,0.00
2019-02-17T05:37:14.746Z,0.00
2019-02-17T05:38:14.739Z,0.00
2019-02-17T05:39:14.724Z,0.00
2019-02-17T05:40:14.715Z,0.00
2019-02-17T05:41:14.705Z,4.00
2019-02-17T05:42:14.691Z,0.00
2019-02-17T05:43:14.689Z,0.00
2019-02-17T05:44:14.676Z,0.00
2019-02-17T05:45:14.660Z,4.00
2019-02-17T05:46:14.655Z,0.00
2019-02-17T05:47:14.639Z,4.00
2019-02-17T05:48:14.630Z,0.00
2019-02-17T05:49:14.619Z,4.00
2019-02-17T05:50:14.607Z,4.00
2019-02-17T05:51:14.597Z,4.00
2019-02-17T05:52:14.595Z,4.00
2019-02-17T05:53:14.589Z,8.00
2019-02-17T05:54:14.569Z,8.00
2019-02-17T05:55:14.556Z,8.00
2019-02-17T05:56:14.545Z,12.00
2019-02-17T05:57:14.533Z,16.00
2019-02-17T05:58:14.526Z,16.00
2019-02-17T05:59:14.513Z,24.00
2019-02-17T06:00:14.504Z,28.00
2019-02-17T06:01:14.493Z,32.00
2019-02-17T06:02:14.481Z,40.00
2019-02-17T06:03:14.474Z,48.00
2019-02-17T06:04:14.466Z,56.00
2019-02-17T06:05:14.453Z,64.00
2019-02-17T06:06:15.098Z,72.00
2019-02-17T06:07:14.429Z,84.00
2019-02-17T06:08:14.420Z,92.00
2019-02-17T06:09:14.410Z,100.00
2019-02-17T06:10:14.407Z,108.00
2019-02-17T06:11:14.393Z,120.00
2019-02-17T06:12:14.379Z,136.00
2019-02-17T06:13:14.368Z,144.00
2019-02-17T06:14:14.358Z,164.00
2019-02-17T06:15:14.347Z,180.00
2019-02-17T06:16:14.342Z,200.00
2019-02-17T06:17:14.326Z,216.00
2019-02-17T06:18:14.313Z,244.00
2019-02-17T06:19:14.303Z,264.00
2019-02-17T06:20:14.296Z,292.00
2019-02-17T06:21:14.284Z,320.00
2019-02-17T06:22:14.278Z,352.00
2019-02-17T06:23:14.268Z,384.00
2019-02-17T06:24:14.251Z,420.00
2019-02-17T06:25:14.242Z,460.00
2019-02-17T06:26:14.234Z,496.00
2019-02-17T06:27:14.223Z,544.00
2019-02-17T06:28:14.216Z,588.00
2019-02-17T06:29:14.203Z,644.00
2019-02-17T06:30:14.191Z,700.00
2019-02-17T06:31:14.884Z,760.00
2019-02-17T06:32:14.168Z,812.00
2019-02-17T06:33:14.163Z,880.00
2019-02-17T06:34:14.151Z,944.00
2019-02-17T06:35:14.140Z,1004.00
2019-02-17T06:36:14.128Z,1068.00
2019-02-17T06:37:14.121Z,1136.00
2019-02-17T06:38:14.108Z,1200.00
2019-02-17T06:39:14.100Z,1272.00
2019-02-17T06:40:14.085Z,1340.00
2019-02-17T06:41:14.078Z,1412.00
2019-02-17T06:42:14.067Z,1484.00
2019-02-17T06:43:14.052Z,1560.00
2019-02-17T06:44:14.046Z,1636.00
2019-02-17T06:45:14.036Z,1700.00
2019-02-17T06:46:14.023Z,1760.00
2019-02-17T06:47:14.022Z,1836.00
2019-02-17T06:48:14.001Z,1916.00
2019-02-17T06:49:13.994Z,1988.00
2019-02-17T06:50:13.979Z,2052.00
2019-02-17T06:51:13.970Z,2132.00
2019-02-17T06:52:13.959Z,2224.00
2019-02-17T06:53:13.955Z,2312.00
2019-02-17T06:54:13.939Z,2384.00
2019-02-17T06:55:13.932Z,2464.00
2019-02-17T06:56:13.948Z,2548.00
2019-02-17T06:57:13.909Z,2632.00
2019-02-17T06:58:13.895Z,2716.00
2019-02-17T06:59:13.885Z,2796.00
2019-02-17T07:00:13.878Z,2876.00
2019-02-17T07:01:24.079Z,2968.00
2019-02-17T07:02:14.857Z,3064.00
2019-02-17T07:03:14.458Z,3144.00
2019-02-17T07:04:13.833Z,3208.00
2019-02-17T07:05:13.824Z,3276.00
2019-02-17T07:06:13.813Z,3376.00
2019-02-17T07:07:13.805Z,3476.00
2019-02-17T07:08:13.806Z,3580.00
2019-02-17T07:09:13.783Z,3684.00
2019-02-17T07:10:13.772Z,3760.00
2019-02-17T07:11:13.774Z,3804.00
2019-02-17T07:12:13.752Z,3820.00
2019-02-17T07:13:13.739Z,3856.00
2019-02-17T07:14:13.729Z,3940.00
2019-02-17T07:15:13.720Z,4028.00
2019-02-17T07:16:13.709Z,4124.00
2019-02-17T07:17:13.700Z,4244.00
2019-02-17T07:18:13.688Z,4364.00
2019-02-17T07:19:13.679Z,4440.00
2019-02-17T07:20:13.668Z,4512.00
2019-02-17T07:21:13.656Z,4608.00
2019-02-17T07:22:13.649Z,4708.00
2019-02-17T07:23:15.296Z,4812.00
2019-02-17T07:24:13.624Z,4900.00
2019-02-17T07:25:13.613Z,5004.00
2019-02-17T07:26:13.604Z,5136.00
2019-02-17T07:27:13.594Z,5248.00
2019-02-17T07:28:13.582Z,5316.00
2019-02-17T07:29:13.571Z,5356.00
2019-02-17T07:30:13.564Z,5436.00
2019-02-17T07:31:13.552Z,5540.00
2019-02-17T07:32:13.542Z,5600.00
2019-02-17T07:33:13.533Z,5676.00
2019-02-17T07:34:13.520Z,5816.00
2019-02-17T07:35:13.511Z,5932.00
2019-02-17T07:36:13.500Z,5972.00
2019-02-17T07:37:13.487Z,5992.00
2019-02-17T07:38:13.480Z,6016.00
2019-02-17T07:39:13.473Z,6044.00
2019-02-17T07:40:13.457Z,6088.00
2019-02-17T07:41:13.450Z,6140.00
2019-02-17T07:42:13.436Z,6196.00
2019-02-17T07:43:13.427Z,6300.00
2019-02-17T07:44:13.414Z,6424.00
2019-02-17T07:45:13.407Z,6536.00
2019-02-17T07:46:13.392Z,6644.00
2019-02-17T07:47:13.381Z,6728.00
2019-02-17T07:48:13.373Z,6796.00
2019-02-17T07:49:13.359Z,6876.00
2019-02-17T07:50:13.367Z,7072.00
2019-02-17T07:51:13.350Z,7312.00
2019-02-17T07:52:13.329Z,7444.00
2019-02-17T07:53:13.320Z,7728.00
2019-02-17T07:54:13.307Z,7988.00
2019-02-17T07:55:13.297Z,8316.00
2019-02-17T07:56:13.287Z,8632.00
2019-02-17T07:57:13.283Z,9288.00
2019-02-17T07:58:13.267Z,9596.00
2019-02-17T07:59:13.263Z,9336.00
2019-02-17T08:00:13.246Z,9128.00
2019-02-17T08:01:13.235Z,8852.00
2019-02-17T08:02:13.223Z,8824.00
2019-02-17T08:03:13.234Z,8884.00
2019-02-17T08:04:13.206Z,9204.00
2019-02-17T08:05:13.198Z,9432.00
2019-02-17T08:06:13.180Z,9336.00
2019-02-17T08:07:13.171Z,9824.00
2019-02-17T08:08:13.162Z,10260.00
2019-02-17T08:09:13.148Z,10776.00
2019-02-17T08:10:14.264Z,11000.00
2019-02-17T08:11:13.137Z,11024.00
2019-02-17T08:12:13.124Z,11412.00
2019-02-17T08:13:13.109Z,11824.00
2019-02-17T08:14:13.094Z,11940.00
2019-02-17T08:15:13.084Z,12160.00
2019-02-17T08:16:13.073Z,12464.00
2019-02-17T08:17:13.065Z,12476.00
2019-02-17T08:18:13.055Z,12628.00
2019-02-17T08:19:13.045Z,12564.00
2019-02-17T08:20:13.032Z,12556.00
2019-02-17T08:21:13.022Z,13412.00
2019-02-17T08:22:13.009Z,16448.00
2019-02-17T08:23:12.999Z,21376.00
2019-02-17T08:24:12.987Z,25984.00
2019-02-17T08:25:21.604Z,26848.00
2019-02-17T08:26:13.966Z,27488.00
2019-02-17T08:27:12.957Z,25248.00
2019-02-17T08:28:12.945Z,26208.00
2019-02-17T08:29:12.937Z,28000.00
2019-02-17T08:30:12.927Z,27424.00
2019-02-17T08:31:12.912Z,26496.00
2019-02-17T08:32:12.904Z,25664.00
2019-02-17T08:33:12.892Z,25600.00
2019-02-17T08:34:12.886Z,26112.00
2019-02-17T08:35:12.877Z,25696.00
2019-02-17T08:36:12.860Z,23584.00
2019-02-17T08:37:12.850Z,19616.00
2019-02-17T08:38:12.845Z,20544.00
2019-02-17T08:39:12.828Z,23392.00
2019-02-17T08:40:12.816Z,24768.00
2019-02-17T08:41:12.808Z,25024.00
2019-02-17T08:42:12.797Z,23008.00
2019-02-17T08:43:12.784Z,25472.00
2019-02-17T08:44:12.780Z,26400.00
2019-02-17T08:45:12.766Z,25472.00
2019-02-17T08:46:12.756Z,26112.00
2019-02-17T08:47:12.742Z,27104.00
2019-02-17T08:48:12.733Z,28032.00
2019-02-17T08:49:12.721Z,28704.00
2019-02-17T08:50:12.711Z,28160.00
2019-02-17T08:51:12.700Z,25568.00
2019-02-17T08:52:12.691Z,24480.00
2019-02-17T08:53:12.677Z,26624.00
2019-02-17T08:54:12.665Z,30592.00
2019-02-17T08:55:12.657Z,35296.00
2019-02-17T08:56:12.649Z,34432.00
2019-02-17T08:57:12.637Z,26688.00
2019-02-17T08:58:12.626Z,24544.00
2019-02-17T08:59:12.612Z,27552.00
2019-02-17T09:00:12.604Z,28576.00
2019-02-17T09:01:12.590Z,34368.00
2019-02-17T09:02:12.579Z,36160.00
2019-02-17T09:03:12.571Z,37952.00
2019-02-17T09:04:12.558Z,40640.00
2019-02-17T09:05:12.549Z,41344.00
2019-02-17T09:06:12.536Z,38592.00
2019-02-17T09:07:12.528Z,37408.00
2019-02-17T09:08:12.514Z,35840.00
2019-02-17T09:09:12.504Z,38496.00
2019-02-17T09:10:12.495Z,41728.00
2019-02-17T09:11:12.485Z,40896.00
2019-02-17T09:12:12.472Z,40896.00
2019-02-17T09:13:12.459Z,40384.00
2019-02-17T09:14:12.454Z,41088.00
2019-02-17T09:15:12.442Z,39456.00
2019-02-17T09:16:12.428Z,37472.00
2019-02-17T09:17:12.416Z,37984.00
2019-02-17T09:18:12.405Z,42880.00
2019-02-17T09:19:12.396Z,41824.00
2019-02-17T09:20:12.393Z,38976.00
2019-02-17T09:21:12.376Z,40576.00
2019-02-17T09:22:12.362Z,42656.00
2019-02-17T09:23:12.352Z,37696.00
2019-02-17T09:24:12.343Z,36352.00
2019-02-17T09:25:12.335Z,40928.00
2019-02-17T09:26:12.325Z,40896.00
2019-02-17T09:27:12.315Z,40768.00
2019-02-17T09:28:12.299Z,33664.00
2019-02-17T09:29:12.289Z,31008.00
2019-02-17T09:30:12.278Z,32960.00
2019-02-17T09:31:12.264Z,35872.00
2019-02-17T09:32:16.355Z,38720.00
2019-02-17T09:33:12.244Z,39712.00
2019-02-17T09:34:12.298Z,41248.00
2019-02-17T09:35:12.221Z,41792.00
2019-02-17T09:36:12.209Z,41920.00
2019-02-17T09:37:12.200Z,40256.00
2019-02-17T09:38:12.189Z,39200.00
2019-02-17T09:39:12.178Z,38272.00
2019-02-17T09:40:12.165Z,37344.00
2019-02-17T09:41:12.157Z,39936.00
2019-02-17T09:42:12.147Z,42944.00
2019-02-17T09:43:12.133Z,44352.00
2019-02-17T09:44:12.124Z,44192.00
2019-02-17T09:45:12.116Z,44192.00
2019-02-17T09:46:12.104Z,42880.00
2019-02-17T09:47:12.091Z,42624.00
2019-02-17T09:48:12.082Z,42944.00
2019-02-17T09:49:12.075Z,42624.00
2019-02-17T09:50:12.060Z,42912.00
2019-02-17T09:51:12.049Z,42496.00
2019-02-17T09:52:12.047Z,42432.00
2019-02-17T09:53:12.030Z,42656.00
2019-02-17T09:54:12.018Z,42528.00
2019-02-17T09:55:12.006Z,43776.00
2019-02-17T09:56:11.996Z,45312.00
2019-02-17T09:57:11.987Z,45152.00
2019-02-17T09:58:11.974Z,45568.00
2019-02-17T09:59:11.965Z,46080.00
2019-02-17T10:00:11.953Z,46848.00
2019-02-17T10:01:11.958Z,49184.00
2019-02-17T10:02:11.932Z,49568.00
2019-02-17T10:03:11.920Z,49216.00
2019-02-17T10:04:11.911Z,49440.00
2019-02-17T10:05:11.898Z,50432.00
2019-02-17T10:06:11.890Z,50208.00
2019-02-17T10:07:11.882Z,47808.00
2019-02-17T10:08:11.867Z,47616.00
2019-02-17T10:09:11.857Z,46400.00
2019-02-17T10:10:11.846Z,45728.00
2019-02-17T10:11:11.836Z,45088.00
2019-02-17T10:12:11.823Z,46208.00
2019-02-17T10:13:11.813Z,45952.00
2019-02-17T10:14:11.802Z,46720.00
2019-02-17T10:15:11.799Z,48480.00
2019-02-17T10:16:11.798Z,47296.00
2019-02-17T10:17:11.822Z,45696.00
2019-02-17T10:18:11.762Z,44768.00
2019-02-17T10:19:11.751Z,45824.00
2019-02-17T10:20:11.741Z,46720.00
2019-02-17T10:21:11.732Z,45952.00
2019-02-17T10:22:11.718Z,49248.00
2019-02-17T10:23:11.707Z,50112.00
2019-02-17T10:24:11.700Z,53504.00
2019-02-17T10:25:11.688Z,54656.00
2019-02-17T10:26:11.677Z,55168.00
2019-02-17T10:27:11.663Z,56160.00
2019-02-17T10:28:11.652Z,57504.00
2019-02-17T10:29:11.643Z,57632.00
2019-02-17T10:30:11.632Z,59360.00
2019-02-17T10:31:11.621Z,57280.00
2019-02-17T10:32:11.612Z,58720.00
2019-02-17T10:33:11.600Z,57312.00
2019-02-17T10:34:11.588Z,54176.00
2019-02-17T10:35:11.579Z,54752.00
2019-02-17T10:36:11.582Z,53952.00
2019-02-17T10:37:11.558Z,54656.00
2019-02-17T10:38:11.546Z,53952.00
2019-02-17T10:39:11.536Z,52480.00
2019-02-17T10:40:11.526Z,51616.00
2019-02-17T10:41:11.515Z,50560.00
2019-02-17T10:42:11.504Z,51488.00
2019-02-17T10:43:11.494Z,51776.00
2019-02-17T10:44:11.484Z,49664.00
2019-02-17T10:45:11.473Z,49568.00
2019-02-17T10:46:11.464Z,50336.00
2019-02-17T10:47:11.496Z,50112.00
2019-02-17T10:48:11.443Z,52032.00
2019-02-17T10:49:11.433Z,50688.00
2019-02-17T10:50:11.419Z,54208.00
2019-02-17T10:51:11.411Z,57408.00
2019-02-17T10:52:11.399Z,56064.00
2019-02-17T10:53:11.391Z,55648.00
2019-02-17T10:54:11.376Z,56672.00
2019-02-17T10:55:11.368Z,55936.00
2019-02-17T10:56:11.359Z,54400.00
2019-02-17T10:57:11.347Z,54848.00
2019-02-17T10:58:11.336Z,56960.00
2019-02-17T10:59:11.325Z,58592.00
2019-02-17T11:00:11.316Z,58784.00
2019-02-17T11:01:11.306Z,56800.00
2019-02-17T11:02:11.294Z,56608.00
2019-02-17T11:03:11.289Z,56032.00
2019-02-17T11:04:11.270Z,56800.00
2019-02-17T11:05:11.262Z,55136.00
2019-02-17T11:06:11.249Z,53504.00
2019-02-17T11:07:11.246Z,55744.00
2019-02-17T11:08:11.229Z,56032.00
2019-02-17T11:09:11.217Z,52096.00
2019-02-17T11:10:11.208Z,54752.00
2019-02-17T11:11:11.196Z,53824.00
2019-02-17T11:12:11.185Z,53792.00
2019-02-17T11:13:11.177Z,55840.00
2019-02-17T11:14:11.166Z,58272.00
2019-02-17T11:15:11.153Z,59584.00
2019-02-17T11:16:11.142Z,58688.00
2019-02-17T11:17:11.133Z,56864.00
2019-02-17T11:18:11.124Z,52256.00
2019-02-17T11:19:11.111Z,49152.00
2019-02-17T11:20:11.100Z,50144.00
2019-02-17T11:21:11.090Z,55904.00
2019-02-17T11:22:11.078Z,52832.00
2019-02-17T11:23:11.068Z,52352.00
2019-02-17T11:24:11.056Z,51872.00
2019-02-17T11:25:11.046Z,53088.00
2019-02-17T11:26:11.033Z,52768.00
2019-02-17T11:27:11.021Z,56224.00
2019-02-17T11:28:11.016Z,56896.00
2019-02-17T11:29:11.001Z,48864.00
2019-02-17T11:30:10.991Z,49952.00
2019-02-17T11:31:10.978Z,51520.00
2019-02-17T11:32:10.970Z,52288.00
2019-02-17T11:33:10.960Z,54848.00
2019-02-17T11:34:10.953Z,52864.00
2019-02-17T11:35:10.935Z,50432.00
2019-02-17T11:36:10.925Z,51968.00
2019-02-17T11:37:10.914Z,54688.00
2019-02-17T11:38:10.905Z,55968.00
2019-02-17T11:39:10.894Z,54496.00
2019-02-17T11:40:10.882Z,55072.00
2019-02-17T11:41:12.557Z,53088.00
2019-02-17T11:42:10.865Z,51808.00
2019-02-17T11:43:10.853Z,51904.00
2019-02-17T11:44:10.840Z,50272.00
2019-02-17T11:45:10.832Z,51936.00
2019-02-17T11:46:10.821Z,54112.00
2019-02-17T11:47:10.810Z,55168.00
2019-02-17T11:48:10.800Z,55520.00
2019-02-17T11:49:10.790Z,54304.00
2019-02-17T11:50:10.780Z,51008.00
2019-02-17T11:51:10.767Z,51776.00
2019-02-17T11:52:10.756Z,50912.00
2019-02-17T11:53:10.746Z,50272.00
2019-02-17T11:54:10.737Z,52672.00
2019-02-17T11:55:10.730Z,54112.00
2019-02-17T11:56:10.713Z,54176.00
2019-02-17T11:57:10.703Z,54016.00
2019-02-17T11:58:10.693Z,53984.00
2019-02-17T11:59:10.682Z,56832.00
2019-02-17T12:00:10.675Z,55904.00
2019-02-17T12:01:10.662Z,55040.00
2019-02-17T12:02:10.651Z,54304.00
2019-02-17T12:03:10.643Z,56096.00
2019-02-17T12:04:10.629Z,56096.00
2019-02-17T12:05:10.619Z,54656.00
2019-02-17T12:06:10.607Z,52288.00
2019-02-17T12:07:10.602Z,51744.00
2019-02-17T12:08:10.592Z,55200.00
2019-02-17T12:09:10.582Z,55328.00
2019-02-17T12:10:10.569Z,55744.00
2019-02-17T12:11:10.557Z,55296.00
2019-02-17T12:12:10.546Z,58080.00
2019-02-17T12:13:10.536Z,57920.00
2019-02-17T12:14:10.526Z,57600.00
2019-02-17T12:15:10.513Z,57216.00
2019-02-17T12:16:10.504Z,56672.00
2019-02-17T12:17:10.494Z,57472.00
2019-02-17T12:18:10.485Z,57504.00
2019-02-17T12:19:10.471Z,57216.00
2019-02-17T12:20:10.462Z,57568.00
2019-02-17T12:21:10.449Z,56032.00
2019-02-17T12:22:10.440Z,56448.00
2019-02-17T12:23:10.428Z,58432.00
2019-02-17T12:24:10.419Z,57696.00
2019-02-17T12:25:10.413Z,57920.00
2019-02-17T12:26:10.397Z,56512.00
2019-02-17T12:27:10.389Z,54368.00
2019-02-17T12:28:10.377Z,52960.00
2019-02-17T12:29:10.367Z,55008.00
2019-02-17T12:30:10.356Z,54208.00
2019-02-17T12:31:10.346Z,52352.00
2019-02-17T12:32:10.336Z,52608.00
2019-02-17T12:33:17.948Z,51648.00